sensor_id;sensor_type;location;lat;lon;timestamp;temperature;humidity
70079;DHT22;57451;52.496;13.456;2023-07-30T00:00:34;19.00;77.40
70079;DHT22;57451;52.496;13.456;2023-07-30T00:03:02;18.90;77.60
70079;DHT22;57451;52.496;13.456;2023-07-30T00:05:30;18.90;77.40
70079;DHT22;57451;52.496;13.456;2023-07-30T00:07:59;18.90;77.10
70079;DHT22;57451;52.496;13.456;2023-07-30T00:10:26;18.90;77.50
70079;DHT22;57451;52.496;13.456;2023-07-30T00:12:53;18.90;77.80
70079;DHT22;57451;52.496;13.456;2023-07-30T00:15:21;18.80;77.60
70079;DHT22;57451;52.496;13.456;2023-07-30T00:17:48;18.80;77.60
70079;DHT22;57451;52.496;13.456;2023-07-30T00:20:16;18.80;77.80
70079;DHT22;57451;52.496;13.456;2023-07-30T00:22:43;18.80;77.60
70079;DHT22;57451;52.496;13.456;2023-07-30T00:25:12;18.70;77.50
70079;DHT22;57451;52.496;13.456;2023-07-30T00:27:39;18.70;77.60
70079;DHT22;57451;52.496;13.456;2023-07-30T00:30:10;18.70;77.80
70079;DHT22;57451;52.496;13.456;2023-07-30T00:32:37;18.70;77.60
70079;DHT22;57451;52.496;13.456;2023-07-30T00:35:12;18.70;77.50
70079;DHT22;57451;52.496;13.456;2023-07-30T00:37:39;18.70;77.50
70079;DHT22;57451;52.496;13.456;2023-07-30T00:40:07;18.60;77.60
70079;DHT22;57451;52.496;13.456;2023-07-30T00:42:37;18.60;77.70
70079;DHT22;57451;52.496;13.456;2023-07-30T00:45:05;18.60;77.50
70079;DHT22;57451;52.496;13.456;2023-07-30T00:47:33;18.60;77.50
70079;DHT22;57451;52.496;13.456;2023-07-30T00:50:01;18.50;77.60
70079;DHT22;57451;52.496;13.456;2023-07-30T00:52:30;18.50;77.50
70079;DHT22;57451;52.496;13.456;2023-07-30T00:54:57;18.50;77.30
70079;DHT22;57451;52.496;13.456;2023-07-30T00:57:26;18.50;77.10
70079;DHT22;57451;52.496;13.456;2023-07-30T00:59:56;18.40;77.00
70079;DHT22;57451;52.496;13.456;2023-07-30T01:02:24;18.40;76.80
70079;DHT22;57451;52.496;13.456;2023-07-30T01:04:52;18.40;76.80
70079;DHT22;57451;52.496;13.456;2023-07-30T01:07:20;18.40;76.50
70079;DHT22;57451;52.496;13.456;2023-07-30T01:09:48;18.40;76.40
70079;DHT22;57451;52.496;13.456;2023-07-30T01:12:15;18.30;76.10
70079;DHT22;57451;52.496;13.456;2023-07-30T01:14:43;18.30;76.40
70079;DHT22;57451;52.496;13.456;2023-07-30T01:17:13;18.30;76.30
70079;DHT22;57451;52.496;13.456;2023-07-30T01:19:41;18.30;76.70
70079;DHT22;57451;52.496;13.456;2023-07-30T01:22:10;18.20;77.20
70079;DHT22;57451;52.496;13.456;2023-07-30T01:24:37;18.20;77.00
70079;DHT22;57451;52.496;13.456;2023-07-30T01:27:07;18.20;76.80
70079;DHT22;57451;52.496;13.456;2023-07-30T01:29:40;18.20;76.70
70079;DHT22;57451;52.496;13.456;2023-07-30T01:32:11;18.10;76.60
70079;DHT22;57451;52.496;13.456;2023-07-30T01:34:40;18.10;76.80
70079;DHT22;57451;52.496;13.456;2023-07-30T01:37:12;18.10;76.60
70079;DHT22;57451;52.496;13.456;2023-07-30T01:39:40;18.10;76.70
70079;DHT22;57451;52.496;13.456;2023-07-30T01:42:11;18.10;76.90
70079;DHT22;57451;52.496;13.456;2023-07-30T01:44:39;18.10;77.00
70079;DHT22;57451;52.496;13.456;2023-07-30T01:47:06;18.00;77.20
70079;DHT22;57451;52.496;13.456;2023-07-30T01:49:33;18.00;77.40
70079;DHT22;57451;52.496;13.456;2023-07-30T01:52:01;18.00;77.10
70079;DHT22;57451;52.496;13.456;2023-07-30T01:54:30;18.00;77.30
70079;DHT22;57451;52.496;13.456;2023-07-30T01:56:57;18.00;77.20
70079;DHT22;57451;52.496;13.456;2023-07-30T01:59:25;18.00;77.10
70079;DHT22;57451;52.496;13.456;2023-07-30T02:01:52;17.90;77.30
70079;DHT22;57451;52.496;13.456;2023-07-30T02:04:19;17.90;77.50
70079;DHT22;57451;52.496;13.456;2023-07-30T02:06:47;17.90;77.40
70079;DHT22;57451;52.496;13.456;2023-07-30T02:09:14;17.90;77.10
70079;DHT22;57451;52.496;13.456;2023-07-30T02:11:43;17.90;76.70
70079;DHT22;57451;52.496;13.456;2023-07-30T02:14:10;17.80;76.50
70079;DHT22;57451;52.496;13.456;2023-07-30T02:16:38;17.80;77.00
70079;DHT22;57451;52.496;13.456;2023-07-30T02:19:07;17.80;77.10
70079;DHT22;57451;52.496;13.456;2023-07-30T02:21:35;17.80;76.40
70079;DHT22;57451;52.496;13.456;2023-07-30T02:24:06;17.80;76.10
70079;DHT22;57451;52.496;13.456;2023-07-30T02:26:37;17.80;76.60
70079;DHT22;57451;52.496;13.456;2023-07-30T02:29:06;17.80;77.40
70079;DHT22;57451;52.496;13.456;2023-07-30T02:31:33;17.80;77.70
70079;DHT22;57451;52.496;13.456;2023-07-30T02:34:01;17.80;77.80
70079;DHT22;57451;52.496;13.456;2023-07-30T02:36:28;17.70;77.80
70079;DHT22;57451;52.496;13.456;2023-07-30T02:38:55;17.70;78.00
70079;DHT22;57451;52.496;13.456;2023-07-30T02:41:23;17.70;78.00
70079;DHT22;57451;52.496;13.456;2023-07-30T02:43:50;17.60;78.40
70079;DHT22;57451;52.496;13.456;2023-07-30T02:46:19;17.60;78.50
70079;DHT22;57451;52.496;13.456;2023-07-30T02:48:46;17.60;78.00
70079;DHT22;57451;52.496;13.456;2023-07-30T02:51:14;17.60;77.90
70079;DHT22;57451;52.496;13.456;2023-07-30T02:53:42;17.60;77.70
70079;DHT22;57451;52.496;13.456;2023-07-30T02:56:10;17.50;77.00
70079;DHT22;57451;52.496;13.456;2023-07-30T02:58:37;17.50;76.50
70079;DHT22;57451;52.496;13.456;2023-07-30T03:01:06;17.50;76.30
70079;DHT22;57451;52.496;13.456;2023-07-30T03:03:35;17.50;77.50
70079;DHT22;57451;52.496;13.456;2023-07-30T03:06:03;17.50;77.50
70079;DHT22;57451;52.496;13.456;2023-07-30T03:08:30;17.50;77.10
70079;DHT22;57451;52.496;13.456;2023-07-30T03:11:00;17.50;77.10
70079;DHT22;57451;52.496;13.456;2023-07-30T03:13:27;17.50;77.50
70079;DHT22;57451;52.496;13.456;2023-07-30T03:15:55;17.50;77.70
70079;DHT22;57451;52.496;13.456;2023-07-30T03:18:22;17.50;78.10
70079;DHT22;57451;52.496;13.456;2023-07-30T03:20:52;17.40;77.70
70079;DHT22;57451;52.496;13.456;2023-07-30T03:23:24;17.40;77.60
70079;DHT22;57451;52.496;13.456;2023-07-30T03:25:51;17.40;77.90
70079;DHT22;57451;52.496;13.456;2023-07-30T03:28:18;17.40;78.30
70079;DHT22;57451;52.496;13.456;2023-07-30T03:30:46;17.30;77.70
70079;DHT22;57451;52.496;13.456;2023-07-30T03:33:13;17.30;77.10
70079;DHT22;57451;52.496;13.456;2023-07-30T03:35:41;17.30;77.70
70079;DHT22;57451;52.496;13.456;2023-07-30T03:38:11;17.30;78.00
70079;DHT22;57451;52.496;13.456;2023-07-30T03:40:38;17.30;77.50
70079;DHT22;57451;52.496;13.456;2023-07-30T03:43:05;17.30;78.00
70079;DHT22;57451;52.496;13.456;2023-07-30T03:45:33;17.20;78.00
70079;DHT22;57451;52.496;13.456;2023-07-30T03:48:00;17.20;77.80
70079;DHT22;57451;52.496;13.456;2023-07-30T03:50:28;17.20;77.90
70079;DHT22;57451;52.496;13.456;2023-07-30T03:52:55;17.20;77.40
70079;DHT22;57451;52.496;13.456;2023-07-30T03:55:25;17.20;77.50
70079;DHT22;57451;52.496;13.456;2023-07-30T03:57:53;17.20;78.40
70079;DHT22;57451;52.496;13.456;2023-07-30T04:00:20;17.20;77.70
70079;DHT22;57451;52.496;13.456;2023-07-30T04:02:47;17.20;78.60
70079;DHT22;57451;52.496;13.456;2023-07-30T04:05:15;17.20;79.00
70079;DHT22;57451;52.496;13.456;2023-07-30T04:07:43;17.20;79.10
70079;DHT22;57451;52.496;13.456;2023-07-30T04:10:10;17.20;79.10
70079;DHT22;57451;52.496;13.456;2023-07-30T04:12:39;17.30;79.40
70079;DHT22;57451;52.496;13.456;2023-07-30T04:15:07;17.30;79.20
70079;DHT22;57451;52.496;13.456;2023-07-30T04:17:36;17.30;79.10
70079;DHT22;57451;52.496;13.456;2023-07-30T04:20:05;17.30;78.90
70079;DHT22;57451;52.496;13.456;2023-07-30T04:22:34;17.30;79.00
70079;DHT22;57451;52.496;13.456;2023-07-30T04:25:02;17.30;79.00
70079;DHT22;57451;52.496;13.456;2023-07-30T04:27:30;17.30;78.90
70079;DHT22;57451;52.496;13.456;2023-07-30T04:30:02;17.30;79.00
70079;DHT22;57451;52.496;13.456;2023-07-30T04:32:30;17.30;78.80
70079;DHT22;57451;52.496;13.456;2023-07-30T04:34:57;17.30;78.90
70079;DHT22;57451;52.496;13.456;2023-07-30T04:37:25;17.30;79.00
70079;DHT22;57451;52.496;13.456;2023-07-30T04:39:53;17.30;78.90
70079;DHT22;57451;52.496;13.456;2023-07-30T04:42:21;17.30;78.70
70079;DHT22;57451;52.496;13.456;2023-07-30T04:44:49;17.30;78.50
70079;DHT22;57451;52.496;13.456;2023-07-30T04:47:19;17.30;78.60
70079;DHT22;57451;52.496;13.456;2023-07-30T04:49:46;17.30;78.40
70079;DHT22;57451;52.496;13.456;2023-07-30T04:52:14;17.30;78.30
70079;DHT22;57451;52.496;13.456;2023-07-30T04:54:41;17.40;78.20
70079;DHT22;57451;52.496;13.456;2023-07-30T04:57:09;17.40;78.40
70079;DHT22;57451;52.496;13.456;2023-07-30T04:59:36;17.40;78.40
70079;DHT22;57451;52.496;13.456;2023-07-30T05:02:04;17.40;78.10
70079;DHT22;57451;52.496;13.456;2023-07-30T05:04:34;17.40;78.00
70079;DHT22;57451;52.496;13.456;2023-07-30T05:07:02;17.40;77.80
70079;DHT22;57451;52.496;13.456;2023-07-30T05:09:29;17.50;77.90
70079;DHT22;57451;52.496;13.456;2023-07-30T05:11:56;17.50;78.00
70079;DHT22;57451;52.496;13.456;2023-07-30T05:14:24;17.50;77.80
70079;DHT22;57451;52.496;13.456;2023-07-30T05:16:52;17.50;77.90
70079;DHT22;57451;52.496;13.456;2023-07-30T05:19:19;17.60;77.60
70079;DHT22;57451;52.496;13.456;2023-07-30T05:21:48;17.60;77.30
70079;DHT22;57451;52.496;13.456;2023-07-30T05:24:15;17.60;77.30
70079;DHT22;57451;52.496;13.456;2023-07-30T05:26:43;17.60;77.70
70079;DHT22;57451;52.496;13.456;2023-07-30T05:29:10;17.60;77.80
70079;DHT22;57451;52.496;13.456;2023-07-30T05:31:37;17.60;77.80
70079;DHT22;57451;52.496;13.456;2023-07-30T05:34:05;17.60;77.60
70079;DHT22;57451;52.496;13.456;2023-07-30T05:36:33;17.60;77.80
70079;DHT22;57451;52.496;13.456;2023-07-30T05:39:01;17.70;77.90
70079;DHT22;57451;52.496;13.456;2023-07-30T05:41:29;17.70;77.70
70079;DHT22;57451;52.496;13.456;2023-07-30T05:43:56;17.70;77.60
70079;DHT22;57451;52.496;13.456;2023-07-30T05:46:23;17.70;77.50
70079;DHT22;57451;52.496;13.456;2023-07-30T05:48:51;17.80;77.30
70079;DHT22;57451;52.496;13.456;2023-07-30T05:51:19;17.90;77.60
70079;DHT22;57451;52.496;13.456;2023-07-30T05:53:46;18.00;77.40
70079;DHT22;57451;52.496;13.456;2023-07-30T05:56:15;18.00;77.70
70079;DHT22;57451;52.496;13.456;2023-07-30T05:58:45;18.10;77.90
70079;DHT22;57451;52.496;13.456;2023-07-30T06:01:12;18.20;77.30
70079;DHT22;57451;52.496;13.456;2023-07-30T06:03:40;18.20;76.80
70079;DHT22;57451;52.496;13.456;2023-07-30T06:06:07;18.20;76.70
70079;DHT22;57451;52.496;13.456;2023-07-30T06:08:35;18.30;76.40
70079;DHT22;57451;52.496;13.456;2023-07-30T06:11:02;18.30;76.10
70079;DHT22;57451;52.496;13.456;2023-07-30T06:13:31;18.40;76.00
70079;DHT22;57451;52.496;13.456;2023-07-30T06:15:59;18.40;75.90
70079;DHT22;57451;52.496;13.456;2023-07-30T06:18:26;18.50;75.80
70079;DHT22;57451;52.496;13.456;2023-07-30T06:20:54;18.60;76.20
70079;DHT22;57451;52.496;13.456;2023-07-30T06:23:21;18.70;76.30
70079;DHT22;57451;52.496;13.456;2023-07-30T06:25:49;18.80;75.60
70079;DHT22;57451;52.496;13.456;2023-07-30T06:28:16;18.90;75.80
70079;DHT22;57451;52.496;13.456;2023-07-30T06:30:45;18.90;75.30
70079;DHT22;57451;52.496;13.456;2023-07-30T06:33:12;19.00;75.20
70079;DHT22;57451;52.496;13.456;2023-07-30T06:35:40;19.10;74.50
70079;DHT22;57451;52.496;13.456;2023-07-30T06:38:08;19.10;73.70
70079;DHT22;57451;52.496;13.456;2023-07-30T06:40:36;19.20;73.80
70079;DHT22;57451;52.496;13.456;2023-07-30T06:43:03;19.30;73.70
70079;DHT22;57451;52.496;13.456;2023-07-30T06:45:31;19.30;73.60
70079;DHT22;57451;52.496;13.456;2023-07-30T06:47:59;19.40;74.20
70079;DHT22;57451;52.496;13.456;2023-07-30T06:50:27;19.50;74.00
70079;DHT22;57451;52.496;13.456;2023-07-30T06:52:54;19.50;73.70
70079;DHT22;57451;52.496;13.456;2023-07-30T06:55:22;19.50;73.10
70079;DHT22;57451;52.496;13.456;2023-07-30T06:57:49;19.60;73.60
70079;DHT22;57451;52.496;13.456;2023-07-30T07:00:16;19.60;72.80
70079;DHT22;57451;52.496;13.456;2023-07-30T07:02:49;19.60;73.00
70079;DHT22;57451;52.496;13.456;2023-07-30T07:05:18;19.70;73.20
70079;DHT22;57451;52.496;13.456;2023-07-30T07:07:45;19.80;72.50
70079;DHT22;57451;52.496;13.456;2023-07-30T07:10:13;19.80;72.60
70079;DHT22;57451;52.496;13.456;2023-07-30T07:12:41;19.90;73.00
70079;DHT22;57451;52.496;13.456;2023-07-30T07:15:08;19.90;73.30
70079;DHT22;57451;52.496;13.456;2023-07-30T07:17:36;20.00;73.50
70079;DHT22;57451;52.496;13.456;2023-07-30T07:20:05;20.00;71.90
70079;DHT22;57451;52.496;13.456;2023-07-30T07:22:35;20.10;72.10
70079;DHT22;57451;52.496;13.456;2023-07-30T07:25:04;20.10;71.70
70079;DHT22;57451;52.496;13.456;2023-07-30T07:27:32;20.20;72.40
70079;DHT22;57451;52.496;13.456;2023-07-30T07:29:59;20.30;72.10
70079;DHT22;57451;52.496;13.456;2023-07-30T07:32:27;20.30;71.30
70079;DHT22;57451;52.496;13.456;2023-07-30T07:34:54;20.30;71.40
70079;DHT22;57451;52.496;13.456;2023-07-30T07:37:22;20.40;72.10
70079;DHT22;57451;52.496;13.456;2023-07-30T07:39:50;20.50;71.50
70079;DHT22;57451;52.496;13.456;2023-07-30T07:42:19;20.60;70.80
70079;DHT22;57451;52.496;13.456;2023-07-30T07:44:46;20.60;70.90
70079;DHT22;57451;52.496;13.456;2023-07-30T07:47:14;20.60;70.90
70079;DHT22;57451;52.496;13.456;2023-07-30T07:49:41;20.70;70.60
70079;DHT22;57451;52.496;13.456;2023-07-30T07:52:09;20.80;70.30
70079;DHT22;57451;52.496;13.456;2023-07-30T07:54:36;20.80;70.40
70079;DHT22;57451;52.496;13.456;2023-07-30T07:57:05;20.90;70.40
70079;DHT22;57451;52.496;13.456;2023-07-30T07:59:33;21.00;70.70
70079;DHT22;57451;52.496;13.456;2023-07-30T08:02:00;21.10;70.80
70079;DHT22;57451;52.496;13.456;2023-07-30T08:04:28;21.10;70.10
70079;DHT22;57451;52.496;13.456;2023-07-30T08:06:56;21.20;69.90
70079;DHT22;57451;52.496;13.456;2023-07-30T08:09:27;21.30;70.20
70079;DHT22;57451;52.496;13.456;2023-07-30T08:11:54;21.40;69.90
70079;DHT22;57451;52.496;13.456;2023-07-30T08:14:23;21.50;69.70
70079;DHT22;57451;52.496;13.456;2023-07-30T08:16:51;21.50;69.30
70079;DHT22;57451;52.496;13.456;2023-07-30T08:19:18;21.60;69.90
70079;DHT22;57451;52.496;13.456;2023-07-30T08:21:46;21.70;68.60
70079;DHT22;57451;52.496;13.456;2023-07-30T08:24:14;21.80;69.90
70079;DHT22;57451;52.496;13.456;2023-07-30T08:26:41;21.80;67.60
70079;DHT22;57451;52.496;13.456;2023-07-30T08:29:09;21.90;68.30
70079;DHT22;57451;52.496;13.456;2023-07-30T08:31:38;22.00;67.30
70079;DHT22;57451;52.496;13.456;2023-07-30T08:34:06;22.00;68.00
70079;DHT22;57451;52.496;13.456;2023-07-30T08:36:34;22.10;68.40
70079;DHT22;57451;52.496;13.456;2023-07-30T08:39:02;22.20;66.00
70079;DHT22;57451;52.496;13.456;2023-07-30T08:41:31;22.30;65.30
70079;DHT22;57451;52.496;13.456;2023-07-30T08:43:59;22.30;65.10
70079;DHT22;57451;52.496;13.456;2023-07-30T08:46:27;22.30;63.60
70079;DHT22;57451;52.496;13.456;2023-07-30T08:48:56;22.40;64.70
70079;DHT22;57451;52.496;13.456;2023-07-30T08:51:25;22.50;64.80
70079;DHT22;57451;52.496;13.456;2023-07-30T08:53:53;22.60;62.90
70079;DHT22;57451;52.496;13.456;2023-07-30T08:56:21;22.70;62.50
70079;DHT22;57451;52.496;13.456;2023-07-30T08:58:50;22.70;62.10
70079;DHT22;57451;52.496;13.456;2023-07-30T09:01:19;22.80;63.40
70079;DHT22;57451;52.496;13.456;2023-07-30T09:03:48;22.90;62.80
70079;DHT22;57451;52.496;13.456;2023-07-30T09:06:18;23.00;62.90
70079;DHT22;57451;52.496;13.456;2023-07-30T09:08:46;23.10;61.90
70079;DHT22;57451;52.496;13.456;2023-07-30T09:11:14;23.10;62.60
70079;DHT22;57451;52.496;13.456;2023-07-30T09:13:41;23.20;61.70
70079;DHT22;57451;52.496;13.456;2023-07-30T09:16:10;23.30;62.10
70079;DHT22;57451;52.496;13.456;2023-07-30T09:18:39;23.30;62.20
70079;DHT22;57451;52.496;13.456;2023-07-30T09:21:09;23.40;60.90
70079;DHT22;57451;52.496;13.456;2023-07-30T09:23:42;23.40;60.70
70079;DHT22;57451;52.496;13.456;2023-07-30T09:26:11;23.50;58.90
70079;DHT22;57451;52.496;13.456;2023-07-30T09:28:39;23.50;57.00
70079;DHT22;57451;52.496;13.456;2023-07-30T09:31:08;23.50;57.60
70079;DHT22;57451;52.496;13.456;2023-07-30T09:33:48;23.60;58.50
70079;DHT22;57451;52.496;13.456;2023-07-30T09:36:18;23.70;57.80
70079;DHT22;57451;52.496;13.456;2023-07-30T09:38:47;23.80;58.40
70079;DHT22;57451;52.496;13.456;2023-07-30T09:41:17;23.80;57.30
70079;DHT22;57451;52.496;13.456;2023-07-30T09:43:45;23.90;56.70
70079;DHT22;57451;52.496;13.456;2023-07-30T09:46:12;24.00;56.10
70079;DHT22;57451;52.496;13.456;2023-07-30T09:48:40;24.00;55.30
70079;DHT22;57451;52.496;13.456;2023-07-30T09:51:08;24.00;52.90
70079;DHT22;57451;52.496;13.456;2023-07-30T09:53:36;24.00;54.20
70079;DHT22;57451;52.496;13.456;2023-07-30T09:56:05;24.10;54.30
70079;DHT22;57451;52.496;13.456;2023-07-30T09:58:37;24.10;52.60
70079;DHT22;57451;52.496;13.456;2023-07-30T10:01:05;24.10;53.80
70079;DHT22;57451;52.496;13.456;2023-07-30T10:03:35;24.10;53.30
70079;DHT22;57451;52.496;13.456;2023-07-30T10:06:03;24.10;53.30
70079;DHT22;57451;52.496;13.456;2023-07-30T10:08:35;24.10;53.30
70079;DHT22;57451;52.496;13.456;2023-07-30T10:11:08;24.30;52.70
70079;DHT22;57451;52.496;13.456;2023-07-30T10:13:37;24.20;51.90
70079;DHT22;57451;52.496;13.456;2023-07-30T10:16:09;24.20;51.00
70079;DHT22;57451;52.496;13.456;2023-07-30T10:18:38;24.20;52.90
70079;DHT22;57451;52.496;13.456;2023-07-30T10:21:07;24.30;52.00
70079;DHT22;57451;52.496;13.456;2023-07-30T10:23:42;24.40;52.20
70079;DHT22;57451;52.496;13.456;2023-07-30T10:26:13;24.40;51.90
70079;DHT22;57451;52.496;13.456;2023-07-30T10:28:41;24.40;51.20
70079;DHT22;57451;52.496;13.456;2023-07-30T10:31:11;24.40;53.30
70079;DHT22;57451;52.496;13.456;2023-07-30T10:33:46;24.50;52.90
70079;DHT22;57451;52.496;13.456;2023-07-30T10:36:14;24.50;51.80
70079;DHT22;57451;52.496;13.456;2023-07-30T10:38:43;24.60;51.50
70079;DHT22;57451;52.496;13.456;2023-07-30T10:41:14;24.60;51.40
70079;DHT22;57451;52.496;13.456;2023-07-30T10:43:46;24.70;51.20
70079;DHT22;57451;52.496;13.456;2023-07-30T10:46:17;24.70;51.80
70079;DHT22;57451;52.496;13.456;2023-07-30T10:48:45;24.70;51.00
70079;DHT22;57451;52.496;13.456;2023-07-30T10:51:14;24.70;50.40
70079;DHT22;57451;52.496;13.456;2023-07-30T10:53:43;24.70;50.90
70079;DHT22;57451;52.496;13.456;2023-07-30T10:56:10;24.70;50.90
70079;DHT22;57451;52.496;13.456;2023-07-30T10:58:40;24.80;51.40
70079;DHT22;57451;52.496;13.456;2023-07-30T11:01:08;24.80;49.00
70079;DHT22;57451;52.496;13.456;2023-07-30T11:03:36;24.70;48.30
70079;DHT22;57451;52.496;13.456;2023-07-30T11:06:05;24.70;47.70
70079;DHT22;57451;52.496;13.456;2023-07-30T11:08:38;24.70;48.40
70079;DHT22;57451;52.496;13.456;2023-07-30T11:11:07;24.70;50.30
70079;DHT22;57451;52.496;13.456;2023-07-30T11:13:37;24.70;50.00
70079;DHT22;57451;52.496;13.456;2023-07-30T11:16:07;24.80;49.60
70079;DHT22;57451;52.496;13.456;2023-07-30T11:18:36;24.90;47.80
70079;DHT22;57451;52.496;13.456;2023-07-30T11:21:04;24.90;49.40
70079;DHT22;57451;52.496;13.456;2023-07-30T11:23:32;24.90;48.50
70079;DHT22;57451;52.496;13.456;2023-07-30T11:26:01;25.00;48.50
70079;DHT22;57451;52.496;13.456;2023-07-30T11:28:30;25.00;49.70
70079;DHT22;57451;52.496;13.456;2023-07-30T11:31:02;25.00;48.40
70079;DHT22;57451;52.496;13.456;2023-07-30T11:33:32;25.10;49.10
70079;DHT22;57451;52.496;13.456;2023-07-30T11:36:01;25.20;47.80
70079;DHT22;57451;52.496;13.456;2023-07-30T11:38:30;25.20;47.50
70079;DHT22;57451;52.496;13.456;2023-07-30T11:40:59;25.30;46.10
70079;DHT22;57451;52.496;13.456;2023-07-30T11:43:27;25.40;44.40
70079;DHT22;57451;52.496;13.456;2023-07-30T11:46:11;25.50;44.80
70079;DHT22;57451;52.496;13.456;2023-07-30T11:48:42;25.50;45.50
70079;DHT22;57451;52.496;13.456;2023-07-30T11:51:23;25.50;46.20
70079;DHT22;57451;52.496;13.456;2023-07-30T11:53:52;25.60;47.20
70079;DHT22;57451;52.496;13.456;2023-07-30T11:56:22;25.70;46.60
70079;DHT22;57451;52.496;13.456;2023-07-30T11:58:51;25.80;45.90
70079;DHT22;57451;52.496;13.456;2023-07-30T12:01:18;25.90;46.70
70079;DHT22;57451;52.496;13.456;2023-07-30T12:03:47;25.90;45.00
70079;DHT22;57451;52.496;13.456;2023-07-30T12:06:15;26.00;46.90
70079;DHT22;57451;52.496;13.456;2023-07-30T12:08:42;26.00;45.50
70079;DHT22;57451;52.496;13.456;2023-07-30T12:11:10;26.10;47.20
70079;DHT22;57451;52.496;13.456;2023-07-30T12:13:44;26.20;46.20
70079;DHT22;57451;52.496;13.456;2023-07-30T12:16:14;26.30;47.10
70079;DHT22;57451;52.496;13.456;2023-07-30T12:18:46;26.40;46.80
70079;DHT22;57451;52.496;13.456;2023-07-30T12:21:13;26.50;44.60
70079;DHT22;57451;52.496;13.456;2023-07-30T12:23:41;26.50;43.80
70079;DHT22;57451;52.496;13.456;2023-07-30T12:26:08;26.50;45.00
70079;DHT22;57451;52.496;13.456;2023-07-30T12:28:36;26.60;44.30
70079;DHT22;57451;52.496;13.456;2023-07-30T12:31:03;26.60;44.50
70079;DHT22;57451;52.496;13.456;2023-07-30T12:33:30;26.60;45.70
70079;DHT22;57451;52.496;13.456;2023-07-30T12:35:59;26.70;45.40
70079;DHT22;57451;52.496;13.456;2023-07-30T12:38:26;26.80;45.70
70079;DHT22;57451;52.496;13.456;2023-07-30T12:40:54;26.70;44.70
70079;DHT22;57451;52.496;13.456;2023-07-30T12:43:21;26.80;45.20
70079;DHT22;57451;52.496;13.456;2023-07-30T12:45:49;26.90;45.10
70079;DHT22;57451;52.496;13.456;2023-07-30T12:48:16;26.90;44.90
70079;DHT22;57451;52.496;13.456;2023-07-30T12:50:44;26.90;44.80
70079;DHT22;57451;52.496;13.456;2023-07-30T12:53:13;27.00;45.60
70079;DHT22;57451;52.496;13.456;2023-07-30T12:55:41;27.00;44.50
70079;DHT22;57451;52.496;13.456;2023-07-30T12:58:08;27.00;43.40
70079;DHT22;57451;52.496;13.456;2023-07-30T13:00:36;26.90;43.60
70079;DHT22;57451;52.496;13.456;2023-07-30T13:03:04;26.90;42.40
70079;DHT22;57451;52.496;13.456;2023-07-30T13:05:31;26.80;43.10
70079;DHT22;57451;52.496;13.456;2023-07-30T13:07:58;26.70;42.70
70079;DHT22;57451;52.496;13.456;2023-07-30T13:10:31;26.70;45.30
70079;DHT22;57451;52.496;13.456;2023-07-30T13:12:58;26.70;43.70
70079;DHT22;57451;52.496;13.456;2023-07-30T13:15:25;26.70;42.70
70079;DHT22;57451;52.496;13.456;2023-07-30T13:17:53;26.70;45.20
70079;DHT22;57451;52.496;13.456;2023-07-30T13:20:20;26.70;45.10
70079;DHT22;57451;52.496;13.456;2023-07-30T13:22:49;26.80;44.80
70079;DHT22;57451;52.496;13.456;2023-07-30T13:25:17;26.70;41.60
70079;DHT22;57451;52.496;13.456;2023-07-30T13:27:45;26.60;43.30
70079;DHT22;57451;52.496;13.456;2023-07-30T13:30:13;26.60;42.90
70079;DHT22;57451;52.496;13.456;2023-07-30T13:32:40;26.50;43.20
70079;DHT22;57451;52.496;13.456;2023-07-30T13:35:08;26.60;43.80
70079;DHT22;57451;52.496;13.456;2023-07-30T13:37:35;26.60;44.00
70079;DHT22;57451;52.496;13.456;2023-07-30T13:40:03;26.60;43.30
70079;DHT22;57451;52.496;13.456;2023-07-30T13:42:31;26.50;42.50
70079;DHT22;57451;52.496;13.456;2023-07-30T13:44:59;26.50;41.70
70079;DHT22;57451;52.496;13.456;2023-07-30T13:47:27;26.40;42.30
70079;DHT22;57451;52.496;13.456;2023-07-30T13:49:54;26.30;42.80
70079;DHT22;57451;52.496;13.456;2023-07-30T13:52:22;26.30;41.60
70079;DHT22;57451;52.496;13.456;2023-07-30T13:54:49;26.10;42.50
70079;DHT22;57451;52.496;13.456;2023-07-30T13:57:21;26.10;41.00
70079;DHT22;57451;52.496;13.456;2023-07-30T13:59:50;26.00;42.90
70079;DHT22;57451;52.496;13.456;2023-07-30T14:02:19;25.90;43.20
70079;DHT22;57451;52.496;13.456;2023-07-30T14:04:46;25.80;42.60
70079;DHT22;57451;52.496;13.456;2023-07-30T14:07:14;25.80;43.30
70079;DHT22;57451;52.496;13.456;2023-07-30T14:09:41;25.80;43.00
70079;DHT22;57451;52.496;13.456;2023-07-30T14:12:10;25.70;43.20
70079;DHT22;57451;52.496;13.456;2023-07-30T14:14:37;25.60;42.60
70079;DHT22;57451;52.496;13.456;2023-07-30T14:17:05;25.50;42.40
70079;DHT22;57451;52.496;13.456;2023-07-30T14:19:35;25.40;43.00
70079;DHT22;57451;52.496;13.456;2023-07-30T14:22:03;25.20;42.60
70079;DHT22;57451;52.496;13.456;2023-07-30T14:24:30;25.10;43.10
70079;DHT22;57451;52.496;13.456;2023-07-30T14:26:57;25.10;43.10
70079;DHT22;57451;52.496;13.456;2023-07-30T14:29:25;25.00;44.70
70079;DHT22;57451;52.496;13.456;2023-07-30T14:31:52;25.00;43.60
70079;DHT22;57451;52.496;13.456;2023-07-30T14:34:19;24.80;44.60
70079;DHT22;57451;52.496;13.456;2023-07-30T14:36:48;24.80;45.40
70079;DHT22;57451;52.496;13.456;2023-07-30T14:39:16;24.50;45.80
70079;DHT22;57451;52.496;13.456;2023-07-30T14:41:43;24.40;46.60
70079;DHT22;57451;52.496;13.456;2023-07-30T14:44:10;24.30;47.20
70079;DHT22;57451;52.496;13.456;2023-07-30T14:46:38;24.20;47.60
70079;DHT22;57451;52.496;13.456;2023-07-30T14:49:05;24.10;49.20
70079;DHT22;57451;52.496;13.456;2023-07-30T14:51:32;23.90;49.10
70079;DHT22;57451;52.496;13.456;2023-07-30T14:54:01;23.70;49.50
70079;DHT22;57451;52.496;13.456;2023-07-30T14:56:30;23.50;49.90
70079;DHT22;57451;52.496;13.456;2023-07-30T14:58:57;23.40;50.00
70079;DHT22;57451;52.496;13.456;2023-07-30T15:01:28;23.30;50.60
70079;DHT22;57451;52.496;13.456;2023-07-30T15:03:56;23.10;50.50
70079;DHT22;57451;52.496;13.456;2023-07-30T15:06:24;22.90;51.70
70079;DHT22;57451;52.496;13.456;2023-07-30T15:08:53;22.80;52.70
70079;DHT22;57451;52.496;13.456;2023-07-30T15:11:22;22.70;53.50
70079;DHT22;57451;52.496;13.456;2023-07-30T15:13:49;22.80;54.60
70079;DHT22;57451;52.496;13.456;2023-07-30T15:16:16;22.70;55.10
70079;DHT22;57451;52.496;13.456;2023-07-30T15:18:44;22.60;56.10
70079;DHT22;57451;52.496;13.456;2023-07-30T15:21:11;22.40;56.50